Impacts METAR Board
IDs:

KSFO - San Francisco Intl, CA, US

Updated at: 1400 UTC 19 Aug 2019
Potential Impact None Slight Moderate High
Time 19/02Z 19/03Z 19/04Z 19/05Z 19/06Z 19/07Z 19/08Z 19/09Z 19/10Z 19/11Z 19/12Z 19/13Z 19/14Z
Temp67 65 64 62 61 62 63 63 61 59 59 61 61
Dewpt53 53 53 53 54 54 54 54 53 53 53 54 54
Altim29.86 29.86 29.88 29.90 29.91 29.93 29.93 29.93 29.94 29.95 29.95 29.95 29.96
VIS10 10 10 10 10 10 10 10 10 10 10 10 10
CIG-- -- -- -- -- -- -- -- 16 -- 13 11 11
CoverFEWFEWFEWFEWFEWFEWSCTSCTBKNSCTBKNBKNOVC
FltCatVFRVFRVFRVFRVFRVFRVFRVFRMVFRVFRMVFRMVFRMVFR
WX--------------------------
WDir200210200180190210190200240220270280260
WSpd4 6 7 7 8 6 7 6 4 7 7 6 6
WGst-- -- -- -- -- -- -- -- -- -- -- -- --
Raw hourly METARs
KSFO 190156Z 20004KT 10SM FEW007 19/12 A2986 RMK AO2 SLP110 T01940117
KSFO 190256Z 21006KT 10SM FEW007 18/12 A2986 RMK AO2 SLP112 T01830117 53002
KSFO 190356Z 20007KT 10SM FEW009 18/12 A2988 RMK AO2 SLP118 T01780117
KSFO 190456Z 18007KT 10SM FEW009 17/12 A2990 RMK AO2 SLP126 T01670117
KSFO 190556Z 19008KT 10SM FEW009 16/12 A2991 RMK AO2 SLP129 T01610122 10217 20161 51017
KSFO 190656Z 21006KT 10SM FEW009 FEW015 17/12 A2993 RMK AO2 SLP135 T01670122
KSFO 190756Z 19007KT 10SM FEW009 SCT018 17/12 A2993 RMK AO2 SLP136 T01720122 402390161
KSFO 190856Z 20006KT 10SM FEW009 SCT018 17/12 A2993 RMK AO2 SLP135 T01720122 50005
KSFO 190956Z 24004KT 10SM FEW008 BKN016 16/12 A2994 RMK AO2 SLP138 T01610117
KSFO 191056Z 22007KT 10SM FEW008 SCT016 15/12 A2995 RMK AO2 SLP140 T01500117
KSFO 191156Z 27007KT 10SM FEW008 BKN013 15/12 A2995 RMK AO2 SLP141 T01500117 10172 20144 51006
KSFO 191256Z 28006KT 10SM FEW008 BKN011 16/12 A2995 RMK AO2 SLP142 T01610122
KSFO 191356Z 26006KT 10SM FEW008 OVC011 16/12 A2996 RMK AO2 SLP146 T01610122



Page loaded:  14:40 UTC  |   07:40 AM Pacific  |   08:40 AM Mountain  |   09:40 AM Central  |   10:40 AM Eastern

 

ADVISORIES

FORECASTS

FORECASTS

OBSERVATIONS

USER TOOLS

ABOUT US